createdAt,value
2024-02-09T00:00:46.618Z,-2.08
2024-02-09T00:03:36.826Z,-1.82
2024-02-09T00:06:07.452Z,-1.69
2024-02-09T00:08:38.979Z,-1.66
2024-02-09T00:11:08.788Z,-1.67
2024-02-09T00:13:37.122Z,-1.89
2024-02-09T00:16:07.658Z,-1.75
2024-02-09T00:18:36.102Z,-1.72
2024-02-09T00:21:04.956Z,-1.80
2024-02-09T00:23:33.845Z,-1.84
2024-02-09T00:26:03.274Z,-1.82
2024-02-09T00:28:32.133Z,-1.83
2024-02-09T00:31:00.811Z,-1.92
2024-02-09T00:33:31.327Z,-1.93
2024-02-09T00:36:00.013Z,-1.89
2024-02-09T00:38:28.270Z,-1.94
2024-02-09T00:40:56.943Z,-1.95
2024-02-09T00:43:25.324Z,-1.96
2024-02-09T00:45:55.508Z,-2.04
2024-02-09T00:48:24.598Z,-2.06
2024-02-09T00:50:54.649Z,-2.10
2024-02-09T00:53:22.880Z,-2.15
2024-02-09T00:55:51.524Z,-2.16
2024-02-09T00:58:19.904Z,-2.21
2024-02-09T01:00:48.482Z,-2.33
2024-02-09T01:03:16.755Z,-2.36
2024-02-09T01:05:45.694Z,-2.32
2024-02-09T01:08:16.432Z,-2.35
2024-02-09T01:10:45.260Z,-2.35
2024-02-09T01:13:31.383Z,-2.41
2024-02-09T01:16:17.627Z,-2.41
2024-02-09T01:19:03.624Z,-2.45
2024-02-09T01:21:49.741Z,-2.49
2024-02-09T01:24:36.618Z,-2.49
2024-02-09T01:27:22.777Z,-2.43
2024-02-09T01:30:08.482Z,-2.48
2024-02-09T01:32:54.657Z,-2.58
2024-02-09T01:35:40.207Z,-2.70
2024-02-09T01:38:26.220Z,-2.80
2024-02-09T01:41:13.508Z,-2.81
2024-02-09T01:43:59.837Z,-2.82
2024-02-09T01:46:46.633Z,-2.78
2024-02-09T01:49:33.499Z,-2.79
2024-02-09T01:52:20.161Z,-2.81
2024-02-09T01:55:06.506Z,-2.80
2024-02-09T01:57:54.862Z,-2.93
2024-02-09T02:00:41.348Z,-3.14
2024-02-09T02:03:27.410Z,-3.15
2024-02-09T02:06:14.546Z,-3.20
2024-02-09T02:09:00.465Z,-3.13
2024-02-09T02:11:47.076Z,-3.22
2024-02-09T02:14:34.593Z,-3.25
2024-02-09T02:17:20.464Z,-3.29
2024-02-09T02:20:06.347Z,-3.30
2024-02-09T02:23:00.294Z,-3.29
2024-02-09T02:25:46.184Z,-3.28
2024-02-09T02:28:32.333Z,-3.24
2024-02-09T02:31:19.146Z,-3.29
2024-02-09T02:34:05.150Z,-3.22
2024-02-09T02:36:51.045Z,-3.23
2024-02-09T02:39:37.138Z,-3.23
2024-02-09T02:42:04.621Z,-3.30
2024-02-09T02:44:32.024Z,-3.28
2024-02-09T02:47:02.369Z,-3.33
2024-02-09T02:49:48.282Z,-3.35
2024-02-09T02:52:42.377Z,-3.38
2024-02-09T02:55:28.399Z,-3.33
2024-02-09T02:58:14.235Z,-3.34
2024-02-09T03:01:00.444Z,-3.40
2024-02-09T03:03:47.826Z,-3.38
2024-02-09T03:06:16.670Z,-3.37
2024-02-09T03:08:48.213Z,-3.37
2024-02-09T03:11:18.389Z,-3.36
2024-02-09T03:13:51.332Z,-3.35
2024-02-09T03:16:20.656Z,-3.39
2024-02-09T03:18:50.348Z,-3.39
2024-02-09T03:21:21.559Z,-3.36
2024-02-09T03:23:50.166Z,-3.40
2024-02-09T03:26:18.859Z,-3.42
2024-02-09T03:28:48.243Z,-3.42
2024-02-09T03:31:17.180Z,-3.45
2024-02-09T03:33:45.765Z,-3.49
2024-02-09T03:36:20.791Z,-3.60
2024-02-09T03:38:49.257Z,-3.59
2024-02-09T03:41:17.916Z,-3.55
2024-02-09T03:43:48.117Z,-3.50
2024-02-09T03:46:16.936Z,-3.48
2024-02-09T03:48:45.176Z,-3.57
2024-02-09T03:51:15.081Z,-3.78
2024-02-09T03:53:44.689Z,-3.81
2024-02-09T03:56:13.271Z,-3.73
2024-02-09T03:58:43.540Z,-3.68
2024-02-09T04:01:12.997Z,-3.65
2024-02-09T04:03:41.406Z,-3.56
2024-02-09T04:06:10.139Z,-3.59
2024-02-09T04:08:39.828Z,-3.59
2024-02-09T04:11:08.416Z,-3.63
2024-02-09T04:13:36.762Z,-3.69
2024-02-09T04:16:09.592Z,-3.65
2024-02-09T04:18:38.274Z,-3.62
2024-02-09T04:21:06.944Z,-3.60
2024-02-09T04:23:35.143Z,-3.57
2024-02-09T04:26:05.313Z,-3.60
2024-02-09T04:28:33.555Z,-3.57
2024-02-09T04:31:02.294Z,-3.57
2024-02-09T04:33:32.503Z,-3.56
2024-02-09T04:36:02.170Z,-3.65
2024-02-09T04:38:32.054Z,-3.61
2024-02-09T04:41:00.656Z,-3.65
2024-02-09T04:43:30.977Z,-3.50
2024-02-09T04:45:59.557Z,-3.45
2024-02-09T04:48:27.975Z,-3.46
2024-02-09T04:50:56.705Z,-3.51
2024-02-09T04:53:25.054Z,-3.57
2024-02-09T04:55:53.727Z,-3.56
2024-02-09T04:58:22.150Z,-3.56
2024-02-09T05:00:52.154Z,-3.46
2024-02-09T05:03:20.400Z,-3.46
2024-02-09T05:05:49.086Z,-3.51
2024-02-09T05:08:17.284Z,-3.49
2024-02-09T05:10:48.131Z,-3.38
2024-02-09T05:13:16.644Z,-3.33
2024-02-09T05:15:45.236Z,-3.31
2024-02-09T05:18:15.753Z,-3.23
2024-02-09T05:20:50.004Z,-3.22
2024-02-09T05:23:18.292Z,-3.26
2024-02-09T05:25:46.909Z,-3.27
2024-02-09T05:28:15.197Z,-3.30
2024-02-09T05:30:43.826Z,-3.36
2024-02-09T05:33:12.465Z,-3.40
2024-02-09T05:35:44.495Z,-3.41
2024-02-09T05:38:13.328Z,-3.68
2024-02-09T05:40:41.999Z,-3.51
2024-02-09T05:43:10.313Z,-3.52
2024-02-09T05:45:38.905Z,-3.42
2024-02-09T05:48:07.982Z,-3.34
2024-02-09T05:50:40.592Z,-3.43
2024-02-09T05:53:10.937Z,-3.60
2024-02-09T05:55:40.221Z,-3.51
2024-02-09T05:58:08.679Z,-3.50
2024-02-09T06:00:37.317Z,-3.46
2024-02-09T06:03:08.503Z,-3.48
2024-02-09T06:05:41.614Z,-3.40
2024-02-09T06:08:11.557Z,-3.38
2024-02-09T06:10:40.507Z,-3.37
2024-02-09T06:13:09.215Z,-3.52
2024-02-09T06:15:38.974Z,-3.35
2024-02-09T06:18:07.603Z,-3.33
2024-02-09T06:20:36.259Z,-3.29
2024-02-09T06:23:06.035Z,-3.33
2024-02-09T06:25:36.038Z,-3.29
2024-02-09T06:28:04.634Z,-3.18
2024-02-09T06:30:34.453Z,-3.03
2024-02-09T06:33:03.512Z,-3.02
2024-02-09T06:35:34.914Z,-2.93
2024-02-09T06:38:04.949Z,-2.79
2024-02-09T06:40:36.007Z,-2.71
2024-02-09T06:43:04.326Z,-2.50
2024-02-09T06:45:36.641Z,-2.32
2024-02-09T06:48:06.941Z,-2.35
2024-02-09T06:50:36.694Z,-2.09
2024-02-09T06:53:06.905Z,-1.87
2024-02-09T06:55:37.818Z,-1.75
2024-02-09T06:58:06.551Z,-1.71
2024-02-09T07:00:36.858Z,-1.65
2024-02-09T07:03:05.852Z,-1.53
2024-02-09T07:05:35.744Z,-1.39
2024-02-09T07:08:04.232Z,-1.44
2024-02-09T07:10:32.852Z,-1.33
2024-02-09T07:13:02.481Z,-1.24
2024-02-09T07:15:31.699Z,-1.17
2024-02-09T07:18:01.491Z,-1.23
2024-02-09T07:20:30.398Z,-1.11
2024-02-09T07:22:58.722Z,-0.99
2024-02-09T07:25:27.346Z,-1.00
2024-02-09T07:27:55.610Z,-0.97
2024-02-09T07:30:26.547Z,-0.95
2024-02-09T07:32:55.071Z,-0.88
2024-02-09T07:35:23.736Z,-0.73
2024-02-09T07:37:52.151Z,-0.68
2024-02-09T07:40:22.128Z,-0.56
2024-02-09T07:42:50.460Z,-0.49
2024-02-09T07:45:19.074Z,-0.35
2024-02-09T07:47:50.666Z,-0.31
2024-02-09T07:50:19.490Z,-0.28
2024-02-09T07:52:47.967Z,-0.28
2024-02-09T07:55:19.880Z,-0.11
2024-02-09T07:57:48.267Z,-0.07
2024-02-09T08:00:20.963Z,0.03
2024-02-09T08:02:50.562Z,0.15
2024-02-09T08:05:22.484Z,0.19
2024-02-09T08:07:51.042Z,0.39
2024-02-09T08:10:19.997Z,0.46
2024-02-09T08:12:48.759Z,0.51
2024-02-09T08:15:17.682Z,0.59
2024-02-09T08:17:53.014Z,0.64
2024-02-09T08:20:25.004Z,0.80
2024-02-09T08:22:54.852Z,0.84
2024-02-09T08:25:23.553Z,0.95
2024-02-09T08:27:51.834Z,1.16
2024-02-09T08:30:20.440Z,1.33
2024-02-09T08:32:48.786Z,1.53
2024-02-09T08:35:17.565Z,1.64
2024-02-09T08:37:47.527Z,1.56
2024-02-09T08:40:16.913Z,1.63
2024-02-09T08:42:47.892Z,1.72
2024-02-09T08:45:17.880Z,1.71
2024-02-09T08:47:46.261Z,1.61
2024-02-09T08:50:15.086Z,1.81
2024-02-09T08:52:44.029Z,1.93
2024-02-09T08:55:14.032Z,1.87
2024-02-09T08:57:43.727Z,1.96
2024-02-09T09:00:13.021Z,1.82
2024-02-09T09:02:41.370Z,1.74
2024-02-09T09:05:10.747Z,1.83
2024-02-09T09:07:39.219Z,1.76
2024-02-09T09:10:08.497Z,1.82
2024-02-09T09:12:39.503Z,1.59
2024-02-09T09:15:09.135Z,1.87
2024-02-09T09:17:37.482Z,1.94
2024-02-09T09:20:07.587Z,1.88
2024-02-09T09:22:35.892Z,2.03
2024-02-09T09:25:05.493Z,2.18
2024-02-09T09:27:35.710Z,2.23
2024-02-09T09:30:07.555Z,2.05
2024-02-09T09:32:35.924Z,2.02
2024-02-09T09:35:05.028Z,1.99
2024-02-09T09:37:33.390Z,1.97
2024-02-09T09:40:02.556Z,1.87
2024-02-09T09:42:31.437Z,1.64
2024-02-09T09:45:00.096Z,1.34
2024-02-09T09:47:31.558Z,1.17
2024-02-09T09:50:01.330Z,1.17
2024-02-09T09:52:31.792Z,1.18
2024-02-09T09:55:02.993Z,1.08
2024-02-09T09:57:32.256Z,1.11
2024-02-09T10:00:01.581Z,1.14
2024-02-09T10:02:32.040Z,1.12
2024-02-09T10:05:01.020Z,1.11
2024-02-09T10:07:29.671Z,1.17
2024-02-09T10:09:59.062Z,1.21
2024-02-09T10:12:28.420Z,1.31
2024-02-09T10:14:57.808Z,1.40
2024-02-09T10:17:26.100Z,1.46
2024-02-09T10:19:57.739Z,0.98
2024-02-09T10:22:27.170Z,0.90
2024-02-09T10:24:56.994Z,0.97
2024-02-09T10:27:25.272Z,1.03
2024-02-09T10:29:54.120Z,0.95
2024-02-09T10:32:22.375Z,1.08
2024-02-09T10:34:52.889Z,1.22
2024-02-09T10:37:28.948Z,1.18
2024-02-09T10:40:01.040Z,1.04
2024-02-09T10:42:31.522Z,0.99
2024-02-09T10:45:06.100Z,0.95
2024-02-09T10:47:42.379Z,1.17
2024-02-09T10:50:13.493Z,1.20
2024-02-09T10:52:46.645Z,1.19
2024-02-09T10:55:17.132Z,1.20
2024-02-09T10:57:47.071Z,1.34
2024-02-09T11:00:18.094Z,1.46
2024-02-09T11:02:46.791Z,1.38
2024-02-09T11:05:17.444Z,1.18
2024-02-09T11:07:50.873Z,1.18
2024-02-09T11:10:19.989Z,1.13
2024-02-09T11:12:59.214Z,1.02
2024-02-09T11:15:33.626Z,0.87
2024-02-09T11:18:03.286Z,0.88
2024-02-09T11:20:33.755Z,1.07
2024-02-09T11:23:03.830Z,1.16
2024-02-09T11:25:35.908Z,0.91
2024-02-09T11:28:09.225Z,0.93
2024-02-09T11:30:40.485Z,0.98
2024-02-09T11:33:12.202Z,0.98
2024-02-09T11:35:40.810Z,0.62
2024-02-09T11:38:10.406Z,0.48
2024-02-09T11:40:39.084Z,0.61
2024-02-09T11:43:07.612Z,0.52
2024-02-09T11:45:37.725Z,0.46
2024-02-09T11:48:07.926Z,0.64
2024-02-09T11:50:37.489Z,0.56
2024-02-09T11:53:12.008Z,0.19
2024-02-09T11:55:44.988Z,0.25
2024-02-09T11:58:14.915Z,0.21
2024-02-09T12:00:45.037Z,0.34
2024-02-09T12:03:17.257Z,0.40
2024-02-09T12:05:48.710Z,0.59
2024-02-09T12:08:20.478Z,0.55
2024-02-09T12:10:52.478Z,0.56
2024-02-09T12:13:21.705Z,0.74
2024-02-09T12:15:51.135Z,0.71
2024-02-09T12:18:19.795Z,0.74
2024-02-09T12:20:48.811Z,0.55
2024-02-09T12:23:17.537Z,0.43
2024-02-09T12:25:47.093Z,0.47
2024-02-09T12:28:24.679Z,0.46
2024-02-09T12:30:53.591Z,0.59
2024-02-09T12:33:24.925Z,0.61
2024-02-09T12:35:56.189Z,0.68
2024-02-09T12:38:24.769Z,0.57
2024-02-09T12:40:58.693Z,0.40
2024-02-09T12:43:29.248Z,0.69
2024-02-09T12:45:58.001Z,0.87
2024-02-09T12:48:27.080Z,0.97
2024-02-09T12:50:57.699Z,0.87
2024-02-09T12:53:27.276Z,0.61
2024-02-09T12:55:57.086Z,0.67
2024-02-09T12:58:25.908Z,0.76
2024-02-09T13:00:59.456Z,0.80
2024-02-09T13:03:30.511Z,0.82
2024-02-09T13:05:59.450Z,0.79
2024-02-09T13:08:30.664Z,0.84
2024-02-09T13:10:59.534Z,1.01
2024-02-09T13:13:27.991Z,0.89
2024-02-09T13:15:58.240Z,0.83
2024-02-09T13:18:26.742Z,0.88
2024-02-09T13:20:55.492Z,0.80
2024-02-09T13:23:27.151Z,0.79
2024-02-09T13:25:58.487Z,0.95
2024-02-09T13:28:31.867Z,0.94
2024-02-09T13:31:02.712Z,0.99
2024-02-09T13:33:31.617Z,0.98
2024-02-09T13:36:00.823Z,1.09
2024-02-09T13:38:29.140Z,1.07
2024-02-09T13:40:57.803Z,0.98
2024-02-09T13:43:29.394Z,0.94
2024-02-09T13:45:57.510Z,1.09
2024-02-09T13:48:27.310Z,1.06
2024-02-09T13:50:56.135Z,1.14
2024-02-09T13:53:24.493Z,1.09
2024-02-09T13:55:54.070Z,1.02
2024-02-09T13:58:23.028Z,1.02
2024-02-09T14:00:51.967Z,0.96
2024-02-09T14:03:20.887Z,1.08
2024-02-09T14:05:51.684Z,1.00
2024-02-09T14:08:21.909Z,0.97
2024-02-09T14:10:51.079Z,0.92
2024-02-09T14:13:19.563Z,0.94
2024-02-09T14:15:50.638Z,0.94
2024-02-09T14:18:20.165Z,1.03
2024-02-09T14:20:50.639Z,1.06
2024-02-09T14:23:19.151Z,0.99
2024-02-09T14:25:48.423Z,1.04
2024-02-09T14:28:17.714Z,0.97
2024-02-09T14:30:46.538Z,1.00
2024-02-09T14:33:14.884Z,0.98
2024-02-09T14:35:45.352Z,0.95
2024-02-09T14:38:15.340Z,0.94
2024-02-09T14:40:44.124Z,0.99
2024-02-09T14:43:15.123Z,0.97
2024-02-09T14:45:43.838Z,1.00
2024-02-09T14:48:12.229Z,1.00
2024-02-09T14:50:40.929Z,0.91
2024-02-09T14:53:09.588Z,0.94
2024-02-09T14:55:44.680Z,0.93
2024-02-09T14:58:13.574Z,0.78
2024-02-09T15:00:42.213Z,1.00
2024-02-09T15:03:10.917Z,0.96
2024-02-09T15:05:43.851Z,0.99
2024-02-09T15:08:14.210Z,1.07
2024-02-09T15:10:44.728Z,1.02
2024-02-09T15:13:15.117Z,0.97
2024-02-09T15:15:45.885Z,1.02
2024-02-09T15:18:16.595Z,1.00
2024-02-09T15:20:48.799Z,1.02
2024-02-09T15:23:17.094Z,0.99
2024-02-09T15:25:47.017Z,0.98
2024-02-09T15:28:15.761Z,0.96
2024-02-09T15:30:45.375Z,0.99
2024-02-09T15:33:14.156Z,0.98
2024-02-09T15:35:43.060Z,0.97
2024-02-09T15:38:11.841Z,0.98
2024-02-09T15:40:40.768Z,0.98
2024-02-09T15:43:10.570Z,1.04
2024-02-09T15:45:40.237Z,0.95
2024-02-09T15:48:09.404Z,0.99
2024-02-09T15:50:38.646Z,0.99
2024-02-09T15:53:09.212Z,0.99
2024-02-09T15:55:40.143Z,1.00
2024-02-09T15:58:10.140Z,0.69
2024-02-09T16:00:38.940Z,1.01
2024-02-09T16:03:07.413Z,0.99
2024-02-09T16:05:36.250Z,1.00
2024-02-09T16:08:04.974Z,0.96
2024-02-09T16:10:36.030Z,0.95
2024-02-09T16:13:04.849Z,0.86
2024-02-09T16:15:34.919Z,0.80
2024-02-09T16:18:08.963Z,0.59
2024-02-09T16:20:39.361Z,0.52
2024-02-09T16:23:08.774Z,0.53
2024-02-09T16:25:37.201Z,0.51
2024-02-09T16:28:07.606Z,0.55
2024-02-09T16:30:38.933Z,0.56
2024-02-09T16:33:07.372Z,0.42
2024-02-09T16:35:39.445Z,0.36
2024-02-09T16:38:07.862Z,0.26
2024-02-09T16:40:36.624Z,0.25
2024-02-09T16:43:05.363Z,0.22
2024-02-09T16:45:34.218Z,0.20
2024-02-09T16:48:04.103Z,0.12
2024-02-09T16:50:32.792Z,0.17
2024-02-09T16:53:02.431Z,0.23
2024-02-09T16:55:31.128Z,0.22
2024-02-09T16:57:59.495Z,0.24
2024-02-09T17:00:28.277Z,0.35
2024-02-09T17:02:56.722Z,0.24
2024-02-09T17:05:28.515Z,0.27
2024-02-09T17:07:58.802Z,0.22
2024-02-09T17:10:27.503Z,0.21
2024-02-09T17:12:55.971Z,0.24
2024-02-09T17:15:24.702Z,0.15
2024-02-09T17:17:53.141Z,0.21
2024-02-09T17:20:21.897Z,0.20
2024-02-09T17:22:51.716Z,0.11
2024-02-09T17:25:20.461Z,0.21
2024-02-09T17:27:49.931Z,0.16
2024-02-09T17:30:18.386Z,0.14
2024-02-09T17:32:46.807Z,0.16
2024-02-09T17:35:16.489Z,0.10
2024-02-09T17:37:45.228Z,0.11
2024-02-09T17:40:19.935Z,-0.01
2024-02-09T17:42:49.947Z,-0.21
2024-02-09T17:45:19.058Z,0.09
2024-02-09T17:47:54.493Z,0.13
2024-02-09T17:50:23.910Z,0.14
2024-02-09T17:52:54.216Z,0.16
2024-02-09T17:55:24.581Z,0.16
2024-02-09T17:57:53.200Z,0.12
2024-02-09T18:00:23.581Z,0.12
2024-02-09T18:02:51.961Z,0.13
2024-02-09T18:05:22.560Z,0.17
2024-02-09T18:07:51.117Z,0.11
2024-02-09T18:10:20.181Z,0.08
2024-02-09T18:12:50.599Z,0.12
2024-02-09T18:15:21.181Z,0.10
2024-02-09T18:17:50.608Z,0.08
2024-02-09T18:20:19.054Z,0.32
2024-02-09T18:22:47.661Z,0.15
2024-02-09T18:25:19.630Z,0.19
2024-02-09T18:27:49.477Z,0.16
2024-02-09T18:30:20.320Z,0.07
2024-02-09T18:32:52.223Z,0.06
2024-02-09T18:35:23.184Z,0.21
2024-02-09T18:37:51.911Z,0.20
2024-02-09T18:40:23.162Z,0.08
2024-02-09T18:42:54.006Z,-0.03
2024-02-09T18:45:24.931Z,0.02
2024-02-09T18:47:54.303Z,0.15
2024-02-09T18:50:23.422Z,0.09
2024-02-09T18:52:52.300Z,0.07
2024-02-09T18:55:23.613Z,0.05
2024-02-09T18:57:54.085Z,0.06
2024-02-09T19:00:25.031Z,-0.01
2024-02-09T19:02:53.794Z,0.09
2024-02-09T19:05:23.438Z,0.04
2024-02-09T19:07:52.194Z,0.06
2024-02-09T19:10:21.219Z,0.11
2024-02-09T19:12:58.611Z,0.16
2024-02-09T19:15:32.184Z,-0.04
2024-02-09T19:18:01.490Z,0.08
2024-02-09T19:20:31.420Z,0.04
2024-02-09T19:23:02.427Z,0.13
2024-02-09T19:25:32.198Z,0.08
2024-02-09T19:28:03.293Z,0.12
2024-02-09T19:30:32.485Z,0.07
2024-02-09T19:33:00.979Z,0.03
2024-02-09T19:35:29.879Z,-0.04
2024-02-09T19:37:58.537Z,0.11
2024-02-09T19:40:28.103Z,-0.03
2024-02-09T19:42:56.628Z,-0.35
2024-02-09T19:45:26.923Z,0.10
2024-02-09T19:47:56.846Z,0.03
2024-02-09T19:50:26.794Z,-0.04
2024-02-09T19:52:55.949Z,0.04
2024-02-09T19:55:24.840Z,0.07
2024-02-09T19:57:53.488Z,0.08
2024-02-09T20:00:22.661Z,0.02
2024-02-09T20:02:56.862Z,-0.01
2024-02-09T20:05:32.370Z,0.05
2024-02-09T20:08:01.263Z,0.06
2024-02-09T20:10:30.052Z,0.00
2024-02-09T20:12:58.476Z,0.13
2024-02-09T20:15:29.087Z,0.09
2024-02-09T20:17:59.891Z,0.12
2024-02-09T20:20:29.947Z,0.03
2024-02-09T20:22:58.939Z,0.10
2024-02-09T20:25:28.033Z,0.17
2024-02-09T20:27:57.737Z,0.11
2024-02-09T20:30:27.071Z,0.07
2024-02-09T20:32:55.639Z,0.17
2024-02-09T20:35:27.721Z,0.16
2024-02-09T20:37:56.841Z,0.11
2024-02-09T20:40:25.987Z,0.09
2024-02-09T20:42:54.571Z,0.09
2024-02-09T20:45:23.410Z,0.13
2024-02-09T20:47:52.495Z,0.09
2024-02-09T20:50:21.638Z,0.11
2024-02-09T20:52:52.508Z,0.12
2024-02-09T20:55:23.780Z,0.13
2024-02-09T20:57:53.069Z,0.19
2024-02-09T21:00:22.673Z,0.19
2024-02-09T21:02:53.794Z,0.10
2024-02-09T21:05:24.637Z,0.14
2024-02-09T21:07:54.786Z,0.20
2024-02-09T21:10:24.067Z,0.16
2024-02-09T21:12:52.461Z,0.16
2024-02-09T21:15:21.690Z,0.19
2024-02-09T21:17:52.723Z,0.06
2024-02-09T21:20:22.091Z,0.15
2024-02-09T21:22:57.346Z,0.09
2024-02-09T21:25:29.966Z,0.17
2024-02-09T21:27:58.354Z,0.12
2024-02-09T21:30:27.347Z,0.20
2024-02-09T21:33:00.254Z,0.16
2024-02-09T21:35:31.571Z,0.21
2024-02-09T21:38:01.175Z,0.23
2024-02-09T21:40:33.182Z,0.13
2024-02-09T21:43:03.015Z,0.18
2024-02-09T21:45:31.995Z,0.15
2024-02-09T21:48:00.748Z,0.16
2024-02-09T21:50:30.749Z,0.19
2024-02-09T21:52:59.575Z,0.20
2024-02-09T21:55:29.228Z,0.10
2024-02-09T21:57:59.204Z,0.38
2024-02-09T22:00:27.881Z,0.53
2024-02-09T22:02:56.539Z,0.63
2024-02-09T22:05:27.136Z,0.52
2024-02-09T22:07:55.583Z,0.61
2024-02-09T22:10:26.706Z,0.59
2024-02-09T22:12:55.806Z,0.54
2024-02-09T22:15:25.911Z,0.64
2024-02-09T22:17:55.513Z,0.53
2024-02-09T22:20:31.574Z,0.43
2024-02-09T22:23:00.771Z,0.42
2024-02-09T22:25:44.364Z,0.39
2024-02-09T22:28:32.010Z,0.40
2024-02-09T22:31:04.260Z,0.48
2024-02-09T22:33:33.331Z,0.42
2024-02-09T22:36:02.004Z,0.36
2024-02-09T22:38:32.474Z,0.34
2024-02-09T22:41:01.118Z,0.39
2024-02-09T22:43:29.516Z,0.42
2024-02-09T22:45:58.142Z,0.41
2024-02-09T22:48:29.503Z,0.45
2024-02-09T22:50:58.701Z,0.37
2024-02-09T22:53:26.893Z,0.43
2024-02-09T22:55:57.170Z,0.43
2024-02-09T22:58:26.869Z,0.61
2024-02-09T23:00:56.273Z,0.69
2024-02-09T23:03:24.689Z,0.61
2024-02-09T23:05:55.230Z,0.43
2024-02-09T23:08:23.452Z,0.39
2024-02-09T23:10:57.295Z,0.37
2024-02-09T23:13:25.736Z,0.46
2024-02-09T23:15:55.338Z,0.23
2024-02-09T23:18:28.876Z,0.38
2024-02-09T23:20:58.931Z,0.39
2024-02-09T23:23:27.174Z,0.35
2024-02-09T23:25:55.963Z,0.33
2024-02-09T23:28:29.745Z,0.38
2024-02-09T23:30:58.424Z,0.38
2024-02-09T23:33:31.529Z,0.18
2024-02-09T23:36:01.876Z,0.32
2024-02-09T23:38:31.575Z,0.30
2024-02-09T23:41:00.205Z,0.36
2024-02-09T23:43:29.476Z,0.39
2024-02-09T23:45:58.305Z,0.19
2024-02-09T23:48:30.120Z,0.39
2024-02-09T23:51:01.163Z,0.39
2024-02-09T23:53:29.543Z,0.32
2024-02-09T23:55:58.269Z,0.36
2024-02-09T23:58:27.791Z,0.11
